Time;durP1;ratioP1;P1;durP2;ratioP2;P2;SDS_P1;SDS_P2;PMS_P1;PMS_P2;Temp;Humidity;BMP_temperature;BMP_pressure;BME280_temperature;BME280_humidity;BME280_pressure;Samples;Min_cycle;Max_cycle;Signal;HPM_P1;HPM_P2
2022/04/24 00:02:13;;;;;;;9.50;3.55;;;;;;;6.76;42.22;100838.28;5052064;28;20047;-79
2022/04/24 00:04:40;;;;;;;5.28;3.25;;;;;;;6.75;42.15;100844.34;5038301;28;20044;-77
2022/04/24 00:07:08;;;;;;;4.95;3.78;;;;;;;6.68;42.03;100840.19;5068771;28;20047;-79
2022/04/24 00:09:34;;;;;;;6.32;2.90;;;;;;;6.78;42.17;100839.09;5069176;28;20029;-77
2022/04/24 00:12:00;;;;;;;6.45;3.60;;;;;;;6.61;42.47;100839.50;5050376;28;20057;-79
2022/04/24 00:14:26;;;;;;;7.65;3.95;;;;;;;6.65;42.15;100829.91;5052406;28;20040;-77
2022/04/24 00:16:52;;;;;;;7.40;3.65;;;;;;;6.61;42.42;100833.44;5036707;28;20041;-79
2022/04/24 00:19:19;;;;;;;5.63;3.33;;;;;;;6.46;42.88;100829.47;5070222;28;20029;-78
2022/04/24 00:21:45;;;;;;;3.55;2.95;;;;;;;6.45;42.92;100839.00;5052777;28;20100;-78
2022/04/24 00:24:11;;;;;;;6.35;3.42;;;;;;;6.43;43.19;100835.59;5036351;28;20035;-81
2022/04/24 00:26:38;;;;;;;6.55;3.60;;;;;;;6.53;42.34;100836.25;5054276;28;20569;-79
2022/04/24 00:29:06;;;;;;;8.52;3.63;;;;;;;6.35;43.00;100829.75;5027060;28;20064;-79
2022/04/24 00:31:31;;;;;;;6.88;3.58;;;;;;;6.14;43.57;100830.19;5052285;28;20163;-80
2022/04/24 00:33:57;;;;;;;6.43;2.72;;;;;;;6.36;43.27;100834.03;5051326;28;20134;-79
2022/04/24 00:36:23;;;;;;;5.63;3.85;;;;;;;6.14;43.78;100827.59;5055513;28;20498;-79
2022/04/24 00:38:48;;;;;;;4.75;3.47;;;;;;;6.27;43.48;100821.22;5036767;28;20045;-78
2022/04/24 00:41:14;;;;;;;7.57;3.75;;;;;;;6.35;43.37;100826.28;5038449;28;20142;-78
2022/04/24 00:43:39;;;;;;;5.35;3.58;;;;;;;6.32;43.16;100826.34;5035533;28;20045;-79
2022/04/24 00:46:47;;;;;;;5.15;3.63;;;;;;;6.32;43.41;100824.59;5067522;28;20454;-78
2022/04/24 00:49:13;;;;;;;8.50;2.78;;;;;;;6.31;43.09;100816.84;5053022;28;20037;-78
2022/04/24 00:51:40;;;;;;;6.13;3.42;;;;;;;6.28;42.99;100826.44;5038975;28;20458;-80
2022/04/24 00:54:10;;;;;;;5.68;3.60;;;;;;;6.33;43.18;100821.13;5035453;28;20045;-75
2022/04/24 00:56:37;;;;;;;3.65;2.65;;;;;;;6.27;43.34;100821.22;5052407;28;20037;-75
2022/04/24 00:59:05;;;;;;;4.40;3.28;;;;;;;6.30;43.18;100816.00;5035027;28;20033;-78
2022/04/24 01:01:32;;;;;;;5.78;3.30;;;;;;;6.27;42.97;100818.63;5040167;28;20037;-78
2022/04/24 01:04:03;;;;;;;5.90;3.05;;;;;;;6.18;42.97;100817.09;5028219;28;20051;-78
2022/04/24 01:06:32;;;;;;;4.15;3.20;;;;;;;6.09;43.58;100825.09;5055497;28;20060;-80
2022/04/24 01:09:15;;;;;;;4.97;3.47;;;;;;;6.05;43.58;100823.44;5054431;28;20053;-78
2022/04/24 01:11:42;;;;;;;3.65;2.67;;;;;;;6.14;43.06;100827.59;5055306;28;20052;-76
2022/04/24 01:14:08;;;;;;;8.88;4.15;;;;;;;6.13;43.49;100821.56;5057311;28;20069;-77
2022/04/24 01:16:35;;;;;;;6.43;3.40;;;;;;;5.99;43.36;100819.22;5055660;28;20047;-77
2022/04/24 01:19:01;;;;;;;6.25;3.33;;;;;;;5.81;44.30;100820.47;5072138;28;20106;-78
2022/04/24 01:21:27;;;;;;;4.00;2.40;;;;;;;5.96;43.93;100827.09;5040348;28;20024;-78
2022/04/24 01:23:52;;;;;;;6.47;3.67;;;;;;;5.95;44.11;100815.03;5070825;28;20049;-76
2022/04/24 01:26:18;;;;;;;6.75;3.90;;;;;;;5.98;44.17;100820.13;5056661;28;20045;-79
2022/04/24 01:28:43;;;;;;;5.38;3.35;;;;;;;5.91;44.23;100826.34;5039176;28;20109;-75
2022/04/24 01:31:09;;;;;;;5.45;3.72;;;;;;;5.96;43.98;100821.91;5072989;28;20033;-78
2022/04/24 01:33:34;;;;;;;5.72;3.40;;;;;;;5.96;43.88;100827.09;5037322;28;20129;-80
2022/04/24 01:36:00;;;;;;;5.18;3.28;;;;;;;5.74;44.66;100818.06;5039938;28;20047;-76
2022/04/24 01:38:28;;;;;;;8.82;3.00;;;;;;;5.86;44.32;100823.00;5056136;28;20048;-80
2022/04/24 01:40:54;;;;;;;8.02;3.90;;;;;;;5.73;44.55;100816.38;5044915;28;20059;-79
2022/04/24 01:43:20;;;;;;;5.15;3.10;;;;;;;5.73;44.62;100816.38;5054563;28;20041;-77
2022/04/24 01:45:45;;;;;;;6.60;3.08;;;;;;;5.72;44.42;100825.03;5071459;28;20052;-79
2022/04/24 01:48:11;;;;;;;4.07;3.20;;;;;;;5.85;44.01;100821.28;5056483;28;20056;-77
2022/04/24 01:50:36;;;;;;;4.60;2.90;;;;;;;5.79;44.58;100826.59;5056960;28;20039;-75
2022/04/24 01:53:02;;;;;;;5.35;2.85;;;;;;;5.74;44.57;100823.25;5053037;28;20060;-77
2022/04/24 01:55:28;;;;;;;5.28;3.33;;;;;;;5.54;45.27;100832.28;5040017;28;20447;-77
2022/04/24 01:57:53;;;;;;;6.18;3.92;;;;;;;5.48;45.35;100826.34;5056199;28;20075;-80
2022/04/24 02:00:19;;;;;;;6.65;3.08;;;;;;;5.43;46.17;100829.88;5059570;28;20029;-76
2022/04/24 02:02:46;;;;;;;3.75;2.55;;;;;;;5.55;45.64;100830.56;5039265;28;20055;-80
2022/04/24 02:05:17;;;;;;;13.68;3.60;;;;;;;5.53;45.88;100835.75;5055178;28;20044;-79
2022/04/24 02:07:43;;;;;;;5.32;3.80;;;;;;;5.39;46.16;100832.56;5030695;28;20075;-78
2022/04/24 02:10:08;;;;;;;4.18;3.15;;;;;;;5.49;46.23;100828.09;5072216;28;20056;-81
2022/04/24 02:12:35;;;;;;;5.45;3.17;;;;;;;5.35;46.70;100823.16;5041564;28;20482;-80
2022/04/24 02:15:01;;;;;;;6.15;4.03;;;;;;;5.36;47.00;100832.63;5041063;28;20914;-82
2022/04/24 02:17:26;;;;;;;6.35;3.17;;;;;;;5.43;47.20;100835.06;5037591;28;20104;-79
2022/04/24 02:19:52;;;;;;;6.60;4.20;;;;;;;5.51;46.99;100829.75;5040828;28;20083;-81
2022/04/24 02:22:17;;;;;;;6.22;3.28;;;;;;;5.54;46.98;100834.88;5055404;28;20053;-77
2022/04/24 02:24:43;;;;;;;4.68;3.42;;;;;;;5.45;47.66;100835.03;5040352;28;20096;-82
2022/04/24 02:27:09;;;;;;;8.68;4.07;;;;;;;5.41;47.60;100834.28;5039762;28;20114;-79
2022/04/24 02:29:35;;;;;;;7.57;4.07;;;;;;;5.61;47.33;100833.88;5055615;28;20826;-78
2022/04/24 02:32:00;;;;;;;7.10;3.78;;;;;;;5.38;48.59;100828.28;5037154;28;20044;-81
2022/04/24 02:34:26;;;;;;;6.63;3.60;;;;;;;5.48;48.43;100826.34;5038760;28;20097;-78
2022/04/24 02:36:52;;;;;;;9.02;4.57;;;;;;;5.49;48.73;100836.72;5036291;28;20036;-81
2022/04/24 02:39:18;;;;;;;8.85;4.45;;;;;;;5.41;49.32;100820.44;5056574;28;20025;-80
2022/04/24 02:41:44;;;;;;;8.43;4.45;;;;;;;5.32;49.39;100831.81;5053209;28;20181;-79
2022/04/24 02:44:09;;;;;;;9.18;3.88;;;;;;;5.58;48.90;100822.72;5041155;28;20097;-81
2022/04/24 02:46:35;;;;;;;7.95;4.43;;;;;;;5.56;49.08;100821.88;5038330;28;20037;-79
2022/04/24 02:49:00;;;;;;;9.23;3.97;;;;;;;5.64;49.01;100823.44;5040453;28;20586;-78
2022/04/24 02:51:26;;;;;;;10.90;4.88;;;;;;;5.53;49.47;100825.41;5058195;28;20043;-78
2022/04/24 02:53:51;;;;;;;8.40;4.68;;;;;;;5.71;49.16;100823.31;5039861;28;20080;-79
2022/04/24 02:56:17;;;;;;;9.77;4.53;;;;;;;5.50;49.70;100822.84;5055974;28;20037;-80
2022/04/24 02:58:44;;;;;;;7.60;4.70;;;;;;;5.82;48.78;100826.56;5054741;28;20060;-77
2022/04/24 03:01:11;;;;;;;10.63;4.82;;;;;;;5.72;49.27;100819.81;5055112;28;20087;-79
2022/04/24 03:03:38;;;;;;;9.30;4.63;;;;;;;5.97;48.63;100821.03;5054516;28;20060;-78
2022/04/24 03:06:04;;;;;;;6.25;4.15;;;;;;;6.03;48.56;100820.03;5071911;28;20036;-80
2022/04/24 03:08:30;;;;;;;10.90;4.75;;;;;;;6.02;48.83;100816.59;5040966;28;20041;-79
2022/04/24 03:10:55;;;;;;;8.73;4.05;;;;;;;5.85;49.61;100821.28;5037628;28;20040;-77
2022/04/24 03:13:21;;;;;;;7.85;3.78;;;;;;;5.90;49.35;100816.84;5038911;28;20041;-76
2022/04/24 03:15:47;;;;;;;10.82;5.25;;;;;;;6.01;48.86;100817.47;5032443;28;20029;-79
2022/04/24 03:18:12;;;;;;;8.35;4.90;;;;;;;5.90;48.84;100806.47;5059546;28;20036;-79
2022/04/24 03:20:38;;;;;;;9.40;5.03;;;;;;;5.62;49.66;100824.34;5053324;28;20036;-79
2022/04/24 03:23:04;;;;;;;10.20;4.13;;;;;;;5.75;48.94;100814.56;5070590;28;20044;-78
2022/04/24 03:25:29;;;;;;;9.13;4.45;;;;;;;6.18;48.03;100811.06;5055627;28;20643;-80
2022/04/24 03:27:55;;;;;;;12.05;4.57;;;;;;;6.15;48.05;100813.72;5041398;28;20045;-81
2022/04/24 03:30:21;;;;;;;10.07;5.40;;;;;;;5.83;48.81;100817.88;5072294;28;20029;-79
2022/04/24 03:32:47;;;;;;;7.30;4.65;;;;;;;5.76;48.45;100816.28;5037069;28;20609;-79
2022/04/24 03:35:12;;;;;;;6.53;4.38;;;;;;;5.87;48.03;100807.38;5058850;28;20044;-78
2022/04/24 03:37:38;;;;;;;12.23;4.88;;;;;;;5.86;47.78;100813.47;5041992;28;20109;-76
2022/04/24 03:40:05;;;;;;;13.40;4.28;;;;;;;6.08;47.22;100808.69;5074603;28;20104;-77
2022/04/24 03:42:32;;;;;;;7.00;4.05;;;;;;;5.81;47.74;100806.66;5040506;28;20041;-79
2022/04/24 03:44:57;;;;;;;7.68;4.10;;;;;;;5.97;47.11;100813.25;5035502;28;20120;-80
2022/04/24 03:47:23;;;;;;;8.40;3.67;;;;;;;6.02;46.96;100805.38;5056147;28;20494;-77
2022/04/24 03:49:50;;;;;;;5.85;4.22;;;;;;;5.79;47.29;100800.66;5056556;28;20037;-76
2022/04/24 03:52:15;;;;;;;9.57;4.20;;;;;;;5.94;46.58;100800.31;5055450;28;20057;-78
2022/04/24 03:54:41;;;;;;;10.50;3.78;;;;;;;5.92;46.84;100790.88;5039311;28;20037;-76
2022/04/24 03:57:07;;;;;;;7.60;3.97;;;;;;;5.97;46.49;100797.69;5071223;28;20045;-79
2022/04/24 03:59:32;;;;;;;9.20;3.97;;;;;;;5.77;46.63;100805.91;5040436;28;20140;-77
2022/04/24 04:01:58;;;;;;;5.03;2.90;;;;;;;6.01;45.76;100796.72;5055351;28;20288;-78
2022/04/24 04:04:25;;;;;;;7.50;3.75;;;;;;;5.98;45.73;100795.94;5039112;28;20044;-78
2022/04/24 04:06:50;;;;;;;4.35;2.60;;;;;;;5.64;46.20;100800.09;5053448;28;20537;-78
2022/04/24 04:09:16;;;;;;;6.00;2.65;;;;;;;5.97;45.45;100795.09;5062574;28;20005;-79
2022/04/24 04:11:41;;;;;;;6.70;2.63;;;;;;;5.80;45.55;100797.19;5039652;28;20453;-76
2022/04/24 04:14:07;;;;;;;5.45;3.15;;;;;;;5.92;45.46;100806.44;5039142;28;20048;-80
2022/04/24 04:16:33;;;;;;;6.38;2.55;;;;;;;5.97;44.99;100804.59;5056365;28;20032;-77
2022/04/24 04:18:58;;;;;;;4.70;2.15;;;;;;;6.06;44.68;100799.19;5058362;28;20079;-78
2022/04/24 04:21:24;;;;;;;4.95;2.30;;;;;;;6.22;44.04;100804.91;5073422;28;20033;-78
2022/04/24 04:23:50;;;;;;;5.15;1.83;;;;;;;6.14;44.46;100806.81;5056021;28;20072;-77
2022/04/24 04:26:17;;;;;;;5.80;2.38;;;;;;;6.24;43.83;100813.53;5056971;28;20056;-78
2022/04/24 04:28:46;;;;;;;5.10;1.40;;;;;;;6.22;44.02;100817.91;5070764;28;20037;-79
2022/04/24 04:31:12;;;;;;;3.58;1.25;;;;;;;6.11;44.32;100825.91;5088276;28;20028;-80
2022/04/24 04:33:38;;;;;;;5.13;1.73;;;;;;;5.99;44.23;100815.78;5056594;28;20067;-82
2022/04/24 04:36:04;;;;;;;5.18;1.65;;;;;;;5.85;44.86;100824.72;5037492;28;20036;-77
2022/04/24 04:38:29;;;;;;;2.85;1.13;;;;;;;6.03;44.61;100831.25;5062608;28;20142;-77
2022/04/24 04:40:55;;;;;;;5.00;1.77;;;;;;;6.08;44.77;100823.38;5074494;28;20048;-80
2022/04/24 04:43:20;;;;;;;4.90;1.30;;;;;;;5.96;45.04;100834.03;5044623;28;20041;-79
2022/04/24 04:45:47;;;;;;;5.20;1.38;;;;;;;5.87;45.07;100835.06;5075821;28;20028;-80
2022/04/24 04:48:13;;;;;;;6.28;1.83;;;;;;;5.69;45.98;100843.25;5075306;28;20049;-77
2022/04/24 04:50:39;;;;;;;6.53;1.25;;;;;;;5.58;46.39;100839.13;5042863;28;20032;-79
2022/04/24 04:53:04;;;;;;;2.55;1.02;;;;;;;5.61;46.07;100833.00;5041358;28;20117;-78
2022/04/24 04:55:30;;;;;;;3.47;1.13;;;;;;;5.76;45.68;100837.88;5076731;28;20056;-79
2022/04/24 04:57:57;;;;;;;2.88;1.15;;;;;;;5.66;46.23;100846.75;5057966;28;20048;-78
2022/04/24 05:00:23;;;;;;;4.18;1.88;;;;;;;5.73;46.65;100842.31;5043110;28;20100;-78
2022/04/24 05:02:49;;;;;;;2.65;1.85;;;;;;;5.82;46.46;100850.75;5060289;28;20704;-78
2022/04/24 05:05:15;;;;;;;4.32;1.50;;;;;;;5.85;46.68;100842.88;5050110;28;20013;-76
2022/04/24 05:07:40;;;;;;;2.97;1.65;;;;;;;6.13;46.60;100854.41;5054956;28;20067;-77
2022/04/24 05:10:07;;;;;;;6.95;1.77;;;;;;;6.22;46.24;100849.88;5055550;28;20169;-81
2022/04/24 05:12:32;;;;;;;3.47;1.88;;;;;;;6.93;45.43;100855.19;5083346;28;20053;-81
2022/04/24 05:15:07;;;;;;;7.13;1.92;;;;;;;7.86;42.94;100847.50;5043035;28;20055;-77
2022/04/24 05:17:36;;;;;;;4.63;2.58;;;;;;;8.67;41.39;100853.72;5049215;28;20048;-79
2022/04/24 05:20:04;;;;;;;5.43;1.60;;;;;;;9.11;40.29;100848.81;5057588;28;20049;-78
2022/04/24 05:22:30;;;;;;;3.72;1.63;;;;;;;9.58;39.11;100843.66;5050309;28;20048;-78
2022/04/24 05:24:56;;;;;;;5.15;1.80;;;;;;;10.00;37.92;100853.47;5055576;28;20041;-77
2022/04/24 05:27:21;;;;;;;7.22;1.52;;;;;;;10.18;37.20;100857.13;5056559;28;20049;-78
2022/04/24 05:29:48;;;;;;;4.90;1.75;;;;;;;10.62;36.30;100847.53;5040292;28;20138;-79
2022/04/24 05:32:14;;;;;;;4.25;2.30;;;;;;;11.41;35.06;100849.50;5048030;28;20045;-77
2022/04/24 05:34:39;;;;;;;5.90;1.90;;;;;;;12.25;33.24;100847.44;5072720;28;20045;-78
2022/04/24 05:37:06;;;;;;;7.82;1.92;;;;;;;12.76;32.19;100843.25;5039245;28;20548;-77
2022/04/24 05:39:31;;;;;;;6.15;1.98;;;;;;;13.18;31.53;100849.00;5058022;28;20025;-80
2022/04/24 05:41:57;;;;;;;3.50;1.45;;;;;;;12.94;31.12;100846.72;5071142;28;20052;-78
2022/04/24 05:44:23;;;;;;;8.45;2.22;;;;;;;13.47;30.40;100843.13;5041860;28;20087;-78
2022/04/24 05:46:49;;;;;;;4.90;1.80;;;;;;;14.04;29.15;100834.81;5039962;28;20037;-77
2022/04/24 05:49:15;;;;;;;5.82;2.60;;;;;;;14.10;29.14;100844.16;5058551;28;20036;-76
2022/04/24 05:51:41;;;;;;;8.57;2.13;;;;;;;14.68;27.99;100843.50;5056727;28;20101;-76
2022/04/24 05:54:06;;;;;;;5.68;1.95;;;;;;;14.53;28.39;100841.75;5072974;28;20045;-79
2022/04/24 05:56:32;;;;;;;4.05;1.92;;;;;;;14.86;27.16;100832.88;5043930;28;20036;-78
2022/04/24 05:58:57;;;;;;;6.07;2.25;;;;;;;14.02;28.29;100843.72;5039505;28;20048;-79
2022/04/24 06:01:23;;;;;;;6.50;1.63;;;;;;;13.47;29.58;100853.63;5073083;28;20060;-80
2022/04/24 06:03:48;;;;;;;5.22;1.50;;;;;;;13.62;29.42;100854.59;5054455;28;20072;-78
2022/04/24 06:06:14;;;;;;;5.55;1.75;;;;;;;14.34;28.37;100844.53;5039328;28;20048;-77
2022/04/24 06:08:39;;;;;;;2.85;1.58;;;;;;;14.47;28.11;100837.69;5070121;28;20049;-78
2022/04/24 06:11:05;;;;;;;3.88;1.40;;;;;;;15.22;27.55;100848.28;5055532;28;20104;-77
2022/04/24 06:13:31;;;;;;;6.03;2.28;;;;;;;16.43;25.70;100845.13;5057507;28;20414;-77
2022/04/24 06:15:57;;;;;;;3.13;1.73;;;;;;;17.38;24.71;100848.47;5042564;28;20441;-82
2022/04/24 06:18:25;;;;;;;6.47;2.05;;;;;;;16.54;25.32;100847.06;5038589;28;20052;-78
2022/04/24 06:20:51;;;;;;;5.38;1.67;;;;;;;16.26;25.78;100843.56;5055008;28;20079;-77
2022/04/24 06:23:16;;;;;;;3.83;1.95;;;;;;;16.42;25.41;100846.94;5039643;28;20170;-80
2022/04/24 06:25:42;;;;;;;3.42;1.85;;;;;;;17.10;24.48;100841.63;5040366;28;20164;-78
2022/04/24 06:28:08;;;;;;;3.00;1.90;;;;;;;16.91;24.91;100839.34;5040231;28;20056;-81
2022/04/24 06:30:40;;;;;;;4.97;1.80;;;;;;;17.17;24.11;100843.72;5059317;28;20029;-76
2022/04/24 06:33:10;;;;;;;5.95;2.55;;;;;;;16.90;24.04;100837.69;5057987;28;20066;-78
2022/04/24 06:35:37;;;;;;;3.55;2.05;;;;;;;15.98;25.49;100839.22;5042586;28;20037;-75
2022/04/24 06:38:03;;;;;;;4.28;1.63;;;;;;;16.67;25.18;100837.41;5071983;28;20052;-77
2022/04/24 06:40:28;;;;;;;6.63;1.73;;;;;;;16.20;25.42;100836.09;5072370;28;20808;-81
2022/04/24 06:42:56;;;;;;;3.40;1.50;;;;;;;16.27;25.10;100842.66;5053195;28;20129;-78
2022/04/24 06:45:30;;;;;;;3.78;1.77;;;;;;;16.40;24.81;100834.78;5038036;28;20036;-80
2022/04/24 06:47:58;;;;;;;4.43;1.85;;;;;;;16.61;24.66;100829.88;5070210;28;20049;-77
2022/04/24 06:50:25;;;;;;;4.80;1.88;;;;;;;17.02;24.32;100843.00;5052927;28;20150;-81
2022/04/24 06:53:02;;;;;;;2.90;1.60;;;;;;;16.89;24.42;100838.63;5052646;28;20334;-79
2022/04/24 06:55:30;;;;;;;5.45;2.10;;;;;;;17.33;23.74;100832.94;5070876;28;20037;-78
2022/04/24 06:57:56;;;;;;;3.65;1.80;;;;;;;16.86;24.36;100837.03;5041519;28;20750;-79
2022/04/24 07:00:24;;;;;;;2.35;1.40;;;;;;;17.28;23.28;100837.69;5039490;28;20052;-77
2022/04/24 07:02:50;;;;;;;7.43;1.77;;;;;;;17.41;23.28;100833.25;5054646;28;20605;-78
2022/04/24 07:05:16;;;;;;;4.00;2.17;;;;;;;17.22;23.78;100827.56;5068891;28;20116;-81
2022/04/24 07:07:42;;;;;;;3.40;1.63;;;;;;;17.51;23.74;100828.19;5038725;28;20247;-77
2022/04/24 07:10:09;;;;;;;3.85;1.42;;;;;;;18.19;22.98;100829.53;5052385;28;20021;-76
2022/04/24 07:12:52;;;;;;;3.75;1.52;;;;;;;18.20;22.76;100830.38;5050623;28;20048;-78
2022/04/24 07:15:20;;;;;;;3.42;1.13;;;;;;;17.78;22.89;100840.41;5062030;28;20769;-79
2022/04/24 07:17:47;;;;;;;5.43;1.48;;;;;;;17.02;23.62;100831.56;5069637;28;20107;-76
2022/04/24 07:20:14;;;;;;;5.72;1.30;;;;;;;17.11;23.90;100836.22;5054199;28;20091;-78
2022/04/24 07:22:47;;;;;;;3.22;1.63;;;;;;;17.19;24.06;100833.06;5035737;28;20043;-78
2022/04/24 07:25:15;;;;;;;2.78;1.23;;;;;;;17.48;23.31;100817.00;5036093;28;20035;-79
2022/04/24 07:27:41;;;;;;;3.88;1.20;;;;;;;17.76;22.91;100831.75;5055401;28;20062;-79
2022/04/24 07:30:13;;;;;;;2.40;1.67;;;;;;;17.68;23.35;100826.19;5055119;28;20127;-79
2022/04/24 07:32:44;;;;;;;3.67;1.20;;;;;;;17.99;23.63;100822.19;5053308;28;20040;-78
2022/04/24 07:35:13;;;;;;;4.40;1.23;;;;;;;18.02;23.29;100822.78;5070243;28;20052;-79
2022/04/24 07:37:38;;;;;;;7.95;1.92;;;;;;;18.28;22.99;100828.03;5044363;28;20040;-79
2022/04/24 07:40:06;;;;;;;7.38;1.52;;;;;;;18.55;22.98;100830.41;5054500;28;20032;-81
2022/04/24 07:43:02;;;;;;;2.53;1.38;;;;;;;18.22;22.92;100836.41;5069991;28;20221;-79
2022/04/24 07:45:46;;;;;;;1.98;1.13;;;;;;;18.29;23.17;100823.56;5048822;28;20044;-79
2022/04/24 07:48:13;;;;;;;3.30;1.08;;;;;;;18.42;23.06;100819.91;5056453;28;20047;-81
2022/04/24 07:50:43;;;;;;;3.08;1.05;;;;;;;19.66;21.93;100825.47;5038554;28;20035;-76
2022/04/24 07:53:10;;;;;;;3.47;1.48;;;;;;;19.99;21.52;100829.00;5052473;28;20111;-77
2022/04/24 07:55:36;;;;;;;4.97;1.55;;;;;;;19.72;21.75;100826.78;5037173;28;20120;-80
2022/04/24 07:58:02;;;;;;;9.15;1.65;;;;;;;19.96;21.20;100828.44;5052178;28;20589;-77
2022/04/24 08:00:30;;;;;;;2.17;1.50;;;;;;;18.85;22.56;100826.41;5053949;28;20044;-81
2022/04/24 08:03:00;;;;;;;4.38;1.70;;;;;;;19.55;22.10;100829.88;5035476;28;20601;-80
2022/04/24 08:05:30;;;;;;;3.40;1.75;;;;;;;19.15;22.23;100828.56;5056598;28;20029;-79
2022/04/24 08:07:58;;;;;;;3.50;1.40;;;;;;;19.79;21.63;100827.13;5032533;28;20055;-79
2022/04/24 08:10:28;;;;;;;4.28;1.35;;;;;;;19.98;21.24;100824.69;5048703;28;20039;-79
2022/04/24 08:12:54;;;;;;;4.35;2.25;;;;;;;20.30;21.36;100829.19;5037644;28;20059;-81
2022/04/24 08:15:20;;;;;;;2.53;1.42;;;;;;;20.64;21.07;100829.06;5049826;28;20037;-78
2022/04/24 08:17:46;;;;;;;5.53;2.17;;;;;;;19.75;21.57;100826.56;5049835;28;20068;-78
2022/04/24 08:20:14;;;;;;;4.20;1.52;;;;;;;19.94;21.58;100831.19;5034226;28;20037;-80
2022/04/24 08:22:45;;;;;;;3.30;1.33;;;;;;;19.32;22.01;100829.03;5045505;28;20041;-81
2022/04/24 08:25:13;;;;;;;4.03;1.30;;;;;;;19.62;21.94;100828.50;5049781;28;20029;-81
2022/04/24 08:27:40;;;;;;;5.50;1.67;;;;;;;19.84;21.47;100832.94;5048550;28;20137;-80
2022/04/24 08:30:09;;;;;;;6.65;1.63;;;;;;;20.10;21.36;100828.16;5049765;28;20048;-77
2022/04/24 08:32:36;;;;;;;4.57;1.58;;;;;;;19.73;22.19;100833.78;5053932;28;20553;-80
2022/04/24 08:35:03;;;;;;;4.47;1.40;;;;;;;20.38;22.75;100829.44;5050590;28;20518;-80
2022/04/24 08:37:29;;;;;;;3.75;1.40;;;;;;;20.30;21.33;100832.69;5038705;28;20048;-81
2022/04/24 08:39:58;;;;;;;4.82;1.95;;;;;;;19.12;22.19;100838.53;5064814;28;20088;-77
2022/04/24 08:42:23;;;;;;;4.28;1.90;;;;;;;19.07;22.19;100830.94;5067541;28;20061;-78
2022/04/24 08:44:56;;;;;;;5.68;1.75;;;;;;;17.52;25.18;100826.41;5085738;28;20232;-79
2022/04/24 08:47:22;;;;;;;2.17;1.20;;;;;;;18.05;23.99;100837.59;5058114;28;20056;-76
2022/04/24 08:49:48;;;;;;;3.38;1.35;;;;;;;17.99;24.05;100833.59;5050980;28;20041;-79
2022/04/24 08:52:16;;;;;;;6.07;2.08;;;;;;;18.11;24.50;100839.78;5046069;28;20045;-76
2022/04/24 08:54:42;;;;;;;5.00;2.08;;;;;;;18.35;23.55;100847.78;5031924;28;20033;-79
2022/04/24 08:57:17;;;;;;;4.15;1.48;;;;;;;18.16;24.13;100828.88;5062979;28;20566;-81
2022/04/24 08:59:43;;;;;;;5.43;1.40;;;;;;;18.35;24.99;100833.72;5049735;28;20044;-79
2022/04/24 09:02:10;;;;;;;6.03;2.33;;;;;;;17.61;24.82;100834.53;5045929;28;20128;-79
2022/04/24 09:04:37;;;;;;;3.28;1.70;;;;;;;17.09;25.96;100846.06;5031875;28;20052;-79
2022/04/24 09:07:05;;;;;;;9.52;2.30;;;;;;;17.06;26.57;100833.03;5043969;28;20132;-81
2022/04/24 09:09:38;;;;;;;1.90;1.17;;;;;;;16.95;26.26;100841.69;5031830;28;20115;-78
2022/04/24 09:12:07;;;;;;;3.53;1.55;;;;;;;16.24;26.79;100837.56;5036246;28;20147;-77
2022/04/24 09:14:33;;;;;;;2.25;1.08;;;;;;;15.01;27.92;100825.81;5047836;28;20075;-82
2022/04/24 09:17:04;;;;;;;3.88;1.13;;;;;;;14.83;28.52;100841.75;5047172;28;20029;-78
2022/04/24 09:19:30;;;;;;;3.63;0.82;;;;;;;14.73;29.11;100832.72;5048290;28;20052;-78
2022/04/24 09:22:06;;;;;;;1.92;1.35;;;;;;;14.13;30.52;100815.06;5048864;28;20067;-79
2022/04/24 09:24:56;;;;;;;4.15;1.73;;;;;;;14.33;29.87;100840.22;5048900;28;20033;-80
2022/04/24 09:27:27;;;;;;;4.75;1.88;;;;;;;14.29;30.67;100828.19;5053867;28;20629;-78
2022/04/24 09:30:05;;;;;;;2.42;1.48;;;;;;;14.17;30.98;100829.72;5074267;28;20037;-82
2022/04/24 09:32:43;;;;;;;5.00;1.90;;;;;;;14.14;30.92;100827.25;5053093;28;20045;-79
2022/04/24 09:35:09;;;;;;;3.42;2.10;;;;;;;13.49;31.75;100833.34;5054030;28;20108;-80
2022/04/24 09:37:41;;;;;;;2.83;1.60;;;;;;;13.78;30.42;100825.72;5059589;28;20061;-79
2022/04/24 09:40:07;;;;;;;3.40;1.45;;;;;;;13.85;30.08;100828.88;5069429;28;20079;-80
2022/04/24 09:42:33;;;;;;;4.22;1.60;;;;;;;13.78;30.74;100812.59;5035120;28;20069;-79
2022/04/24 09:44:59;;;;;;;4.20;1.95;;;;;;;13.89;30.54;100835.66;5033028;28;20071;-79
2022/04/24 09:47:26;;;;;;;3.53;1.45;;;;;;;14.47;30.25;100826.31;5035466;28;20032;-79
2022/04/24 09:49:53;;;;;;;1.88;1.05;;;;;;;13.93;30.63;100829.31;5034523;28;20044;-81
2022/04/24 09:52:23;;;;;;;2.45;1.38;;;;;;;13.92;30.03;100825.84;5049139;28;20047;-77
2022/04/24 09:54:53;;;;;;;4.57;1.70;;;;;;;12.82;31.74;100821.09;5048013;28;20039;-78
2022/04/24 09:57:22;;;;;;;2.22;1.67;;;;;;;13.39;30.52;100842.66;5032228;28;20071;-78
2022/04/24 09:59:50;;;;;;;3.05;1.63;;;;;;;13.82;30.75;100832.50;5050614;28;20067;-79
2022/04/24 10:02:18;;;;;;;2.63;1.40;;;;;;;13.84;31.64;100827.19;5033640;28;20048;-77
2022/04/24 10:04:45;;;;;;;1.90;1.10;;;;;;;14.03;30.45;100832.25;5034183;28;20112;-78
2022/04/24 10:07:16;;;;;;;3.67;2.00;;;;;;;13.84;31.16;100833.28;5048682;28;20160;-78
2022/04/24 10:09:46;;;;;;;2.45;1.88;;;;;;;14.25;30.57;100827.50;5051109;28;20039;-78
2022/04/24 10:12:23;;;;;;;2.60;1.30;;;;;;;14.27;30.22;100835.31;5069288;28;20090;-78
2022/04/24 10:14:57;;;;;;;2.75;0.98;;;;;;;14.52;28.66;100840.06;5066893;28;20098;-76
2022/04/24 10:17:42;;;;;;;3.00;1.77;;;;;;;14.97;29.75;100835.72;5024848;28;20045;-77
2022/04/24 10:20:14;;;;;;;4.35;2.15;;;;;;;14.66;29.81;100829.59;5049872;28;20033;-77
2022/04/24 10:22:46;;;;;;;2.03;1.45;;;;;;;14.95;28.78;100829.69;5066998;28;20037;-78
2022/04/24 10:25:15;;;;;;;2.38;1.55;;;;;;;14.20;29.83;100842.69;5040610;28;20601;-78
2022/04/24 10:27:46;;;;;;;3.80;1.02;;;;;;;14.53;29.36;100836.50;5031800;28;20256;-80
2022/04/24 10:30:23;;;;;;;3.40;1.45;;;;;;;14.47;29.06;100837.69;5049946;28;20064;-75
2022/04/24 10:33:10;;;;;;;3.88;1.38;;;;;;;14.35;30.24;100841.84;5032032;28;20057;-77
2022/04/24 10:35:47;;;;;;;1.95;1.23;;;;;;;14.68;29.65;100854.03;5066514;28;20044;-78
2022/04/24 10:38:13;;;;;;;4.03;1.83;;;;;;;14.00;30.07;100845.59;5048082;28;20043;-79
2022/04/24 10:40:39;;;;;;;3.40;1.30;;;;;;;14.07;30.55;100841.69;5036510;28;20021;-81
2022/04/24 10:43:07;;;;;;;2.70;1.35;;;;;;;15.08;29.12;100832.41;5059744;28;20071;-78
2022/04/24 10:45:44;;;;;;;4.32;1.27;;;;;;;14.51;30.04;100822.59;5035455;28;20040;-78
2022/04/24 10:48:17;;;;;;;3.78;1.63;;;;;;;14.64;29.67;100838.53;5049787;28;20049;-75
2022/04/24 10:50:47;;;;;;;2.78;1.63;;;;;;;14.98;29.95;100834.75;5051000;28;20128;-75
2022/04/24 10:53:12;;;;;;;4.75;1.33;;;;;;;14.60;29.85;100831.75;5036549;28;20037;-77
2022/04/24 10:55:38;;;;;;;4.65;1.95;;;;;;;14.38;30.41;100838.19;5050832;28;20033;-79
2022/04/24 10:58:05;;;;;;;4.95;2.45;;;;;;;13.68;31.05;100833.25;5048531;28;20041;-79
2022/04/24 11:00:34;;;;;;;3.42;1.73;;;;;;;13.12;31.43;100844.94;5033857;28;20040;-78
2022/04/24 11:03:13;;;;;;;7.47;1.63;;;;;;;12.72;32.20;100838.25;5030897;28;20076;-76
2022/04/24 11:05:41;;;;;;;6.05;1.98;;;;;;;12.87;32.29;100832.19;5048107;28;20025;-78
2022/04/24 11:08:09;;;;;;;5.10;1.73;;;;;;;13.87;31.55;100827.00;5061317;28;20135;-77
2022/04/24 11:10:43;;;;;;;5.82;1.15;;;;;;;14.50;30.46;100827.00;5044710;28;20029;-79
2022/04/24 11:13:14;;;;;;;2.60;1.27;;;;;;;14.09;29.29;100837.19;5048789;28;20045;-78
2022/04/24 11:15:42;;;;;;;2.08;0.88;;;;;;;14.19;30.14;100827.88;5033402;28;20037;-79
2022/04/24 11:18:23;;;;;;;5.22;1.55;;;;;;;14.16;29.59;100817.50;5042167;28;20053;-78
2022/04/24 11:21:03;;;;;;;2.38;1.08;;;;;;;14.11;29.45;100830.06;5036399;28;20123;-78
2022/04/24 11:23:31;;;;;;;6.93;2.22;;;;;;;13.92;30.76;100831.09;5042117;28;20049;-77
2022/04/24 11:25:58;;;;;;;2.85;1.33;;;;;;;14.03;30.01;100816.50;5027164;28;20037;-76
2022/04/24 11:28:41;;;;;;;3.97;1.80;;;;;;;14.14;31.56;100815.00;5041954;28;20048;-81
2022/04/24 11:31:16;;;;;;;3.22;1.73;;;;;;;13.37;30.83;100815.63;5021405;28;20132;-78
2022/04/24 11:34:01;;;;;;;2.85;1.50;;;;;;;13.77;31.13;100810.06;5040794;28;20415;-79